Webb, Alabama
Current Conditions -  °F | °C
As of 3:53 PM on Friday 31 Oct 2014 (Local Time) from KDHN Reporting Station
Few Clouds Few Clouds  
Wind Chill: 70°   Ceiling: Unl
Heat Index: 70°   Visibility: 10mi
Dew Point: 42°   Wind: 12mph
Humidity: 36%   Direction: 300°WNW
Pressure: 29.91"   Gusts: NA
Location:  31.26°N, 85.27°W
Report Text: KDHN 312053Z 30010KT 10SM FEW065 21/06 A2991 RMK AO2 SLP127 T02110056 55012
Loading
Personal Weather Stations






























Interactive Weather Map
Tropical Storm Tracking
New forecast layout! Learn more

10-Day Weather Forecast

Advertisements
Track Severe Weather on mobile